Time;durP1;ratioP1;P1;durP2;ratioP2;P2;SDS_P1;SDS_P2;PMS_P1;PMS_P2;Temp;Humidity;BMP_temperature;BMP_pressure;BME280_temperature;BME280_humidity;BME280_pressure;Samples;Min_cycle;Max_cycle;Signal;HPM_P1;HPM_P2
2023/01/25 00:00:37;;;;;;;36.97;28.23;;;2.60;99.90;;;;;;4801455;29;20516;-95
2023/01/25 00:03:12;;;;;;;39.25;28.35;;;2.60;99.90;;;;;;4800047;29;20081;-95
2023/01/25 00:05:43;;;;;;;36.97;29.15;;;2.60;99.90;;;;;;4823791;29;20081;-96
2023/01/25 00:08:20;;;;;;;37.63;27.42;;;2.60;99.90;;;;;;4823704;29;20049;-95
2023/01/25 00:10:50;;;;;;;41.30;31.10;;;2.50;99.90;;;;;;4800567;29;20570;-95
2023/01/25 00:13:19;;;;;;;40.13;29.85;;;2.50;99.90;;;;;;4801820;29;20046;-95
2023/01/25 00:15:55;;;;;;;37.92;28.63;;;2.50;99.90;;;;;;4808965;29;20054;-96
2023/01/25 00:18:21;;;;;;;40.83;30.48;;;2.50;99.90;;;;;;4812943;29;20073;-95
2023/01/25 00:20:55;;;;;;;43.80;30.60;;;2.50;99.90;;;;;;4803111;29;20047;-95
2023/01/25 00:23:21;;;;;;;41.70;31.45;;;2.50;99.90;;;;;;4801317;29;20120;-95
2023/01/25 00:25:47;;;;;;;40.78;29.63;;;2.50;99.90;;;;;;4802733;29;20039;-94
2023/01/25 00:28:22;;;;;;;40.45;31.30;;;2.50;99.90;;;;;;4810152;29;20042;-95
2023/01/25 00:30:47;;;;;;;42.10;30.05;;;2.50;99.90;;;;;;4823269;29;20042;-95
2023/01/25 00:33:21;;;;;;;41.67;30.20;;;2.50;99.90;;;;;;4819266;29;20074;-95
2023/01/25 00:35:48;;;;;;;42.22;29.88;;;2.40;99.90;;;;;;4810589;29;20140;-94
2023/01/25 00:39:20;;;;;;;46.63;34.95;;;2.50;99.90;;;;;;4826299;29;20084;-95
2023/01/25 00:41:46;;;;;;;42.80;30.85;;;2.40;99.90;;;;;;4788446;30;20549;-95
2023/01/25 00:44:20;;;;;;;43.00;32.40;;;2.40;99.90;;;;;;4787985;29;20130;-95
2023/01/25 00:47:27;;;;;;;44.55;33.47;;;2.50;99.90;;;;;;4791696;29;20062;-95
2023/01/25 00:50:02;;;;;;;44.13;32.10;;;2.40;99.90;;;;;;4822327;29;20134;-96
2023/01/25 00:52:36;;;;;;;45.67;32.38;;;2.40;99.90;;;;;;4796902;29;20506;-94
2023/01/25 00:55:02;;;;;;;47.42;32.70;;;2.40;99.90;;;;;;4805020;29;20126;-94
2023/01/25 00:57:30;;;;;;;42.60;32.05;;;2.40;99.90;;;;;;4818310;29;20078;-94
2023/01/25 00:59:56;;;;;;;45.25;33.10;;;2.40;99.90;;;;;;4791867;29;20076;-95
2023/01/25 01:02:24;;;;;;;43.42;32.40;;;2.50;99.90;;;;;;4805386;29;20050;-94
2023/01/25 01:04:59;;;;;;;46.60;34.30;;;2.50;99.90;;;;;;4796739;29;20046;-94
2023/01/25 01:07:30;;;;;;;42.72;32.25;;;2.50;99.90;;;;;;4820260;29;20158;-94
2023/01/25 01:09:56;;;;;;;54.22;37.60;;;2.40;99.90;;;;;;4808451;29;20047;-94
2023/01/25 01:12:27;;;;;;;43.80;33.17;;;2.40;99.90;;;;;;4812981;29;20042;-94
2023/01/25 01:14:58;;;;;;;45.13;33.75;;;2.40;99.90;;;;;;4810018;29;20081;-93
2023/01/25 01:17:27;;;;;;;45.88;34.28;;;2.40;99.90;;;;;;4812882;29;20043;-95
2023/01/25 01:20:00;;;;;;;48.08;35.03;;;2.40;99.90;;;;;;4791276;29;20059;-95
2023/01/25 01:22:26;;;;;;;47.85;35.50;;;2.30;99.90;;;;;;4821015;29;20513;-94
2023/01/25 01:24:52;;;;;;;50.28;37.70;;;2.30;99.90;;;;;;4808881;29;20113;-94
2023/01/25 01:27:17;;;;;;;45.58;33.03;;;2.30;99.90;;;;;;4803853;29;20046;-94
2023/01/25 01:29:43;;;;;;;49.75;35.50;;;2.30;99.90;;;;;;4790959;29;20055;-94
2023/01/25 01:32:15;;;;;;;46.90;34.35;;;2.30;99.90;;;;;;4803019;29;20051;-94
2023/01/25 01:34:41;;;;;;;48.00;34.15;;;2.40;99.90;;;;;;4825008;29;20175;-94
2023/01/25 01:37:12;;;;;;;47.97;34.45;;;2.30;99.90;;;;;;4805727;29;20074;-94
2023/01/25 01:39:52;;;;;;;48.45;34.22;;;2.30;99.90;;;;;;4807612;29;20055;-93
2023/01/25 01:42:18;;;;;;;47.05;34.30;;;2.30;99.90;;;;;;4811783;29;20126;-94
2023/01/25 01:44:49;;;;;;;48.45;36.03;;;2.30;99.90;;;;;;4825069;29;20085;-94
2023/01/25 01:47:55;;;;;;;50.83;35.10;;;2.30;99.90;;;;;;4813898;29;20046;-93
2023/01/25 01:50:39;;;;;;;47.08;33.38;;;2.20;99.90;;;;;;4765194;29;20126;-94
2023/01/25 01:53:06;;;;;;;49.95;35.25;;;2.20;99.90;;;;;;4790989;29;20575;-94
2023/01/25 01:55:32;;;;;;;47.95;34.45;;;2.20;99.90;;;;;;4791341;29;20055;-94
2023/01/25 01:57:59;;;;;;;49.50;34.75;;;2.20;99.90;;;;;;4803065;29;20050;-94
2023/01/25 02:00:31;;;;;;;50.90;35.08;;;2.20;99.90;;;;;;4805486;29;20043;-94
2023/01/25 02:02:58;;;;;;;48.33;35.10;;;2.20;99.90;;;;;;4824816;29;20050;-93
2023/01/25 02:05:30;;;;;;;48.10;34.70;;;2.20;99.90;;;;;;4809317;29;20046;-93
2023/01/25 02:07:57;;;;;;;49.17;35.55;;;2.20;99.90;;;;;;4817820;29;20050;-93
2023/01/25 02:10:24;;;;;;;50.53;35.67;;;2.20;99.90;;;;;;4808780;29;20053;-94
2023/01/25 02:12:52;;;;;;;50.58;35.85;;;2.20;99.90;;;;;;4817530;29;20137;-94
2023/01/25 02:15:18;;;;;;;50.38;35.85;;;2.20;99.90;;;;;;4807988;29;20042;-93
2023/01/25 02:17:43;;;;;;;52.65;37.55;;;2.20;99.90;;;;;;4809939;29;20042;-93
2023/01/25 02:20:25;;;;;;;55.00;37.63;;;2.20;99.90;;;;;;4806890;29;20151;-94
2023/01/25 02:23:09;;;;;;;52.42;37.03;;;2.20;99.90;;;;;;4791038;29;20059;-93
2023/01/25 02:25:36;;;;;;;49.38;35.30;;;2.20;99.90;;;;;;4805702;29;20054;-93
2023/01/25 02:28:11;;;;;;;53.78;36.97;;;2.20;99.90;;;;;;4824782;29;20419;-93
2023/01/25 02:30:37;;;;;;;51.97;36.78;;;2.20;99.90;;;;;;4808524;29;20488;-93
2023/01/25 02:33:03;;;;;;;51.15;35.80;;;2.20;99.90;;;;;;4805718;29;20109;-93
2023/01/25 02:36:10;;;;;;;49.88;36.17;;;2.20;99.90;;;;;;4790899;29;20050;-94
2023/01/25 02:38:47;;;;;;;53.25;36.83;;;2.20;99.90;;;;;;4788450;29;20108;-92
2023/01/25 02:41:24;;;;;;;50.97;36.00;;;2.20;99.90;;;;;;4818660;29;20057;-93
2023/01/25 02:43:50;;;;;;;48.88;35.08;;;2.10;99.90;;;;;;4808691;29;20058;-93
2023/01/25 02:46:48;;;;;;;50.15;35.58;;;2.10;99.90;;;;;;4795785;29;20139;-92
2023/01/25 02:49:20;;;;;;;50.35;36.28;;;2.10;99.90;;;;;;4800001;29;20116;-93
2023/01/25 02:51:57;;;;;;;49.95;35.95;;;2.10;99.90;;;;;;4813255;29;20137;-93
2023/01/25 02:54:24;;;;;;;53.00;36.47;;;2.10;99.90;;;;;;4791359;29;20180;-93
2023/01/25 02:56:51;;;;;;;49.25;36.42;;;2.10;99.90;;;;;;4821798;29;20412;-93
2023/01/25 02:59:28;;;;;;;50.80;35.78;;;2.20;99.90;;;;;;4822623;29;20133;-93
2023/01/25 03:01:57;;;;;;;53.67;37.28;;;2.10;99.90;;;;;;4807719;29;20474;-92
2023/01/25 03:04:28;;;;;;;52.65;36.38;;;2.10;99.90;;;;;;4794191;29;20058;-93
2023/01/25 03:07:03;;;;;;;53.42;36.88;;;2.10;99.90;;;;;;4812320;29;20047;-92
2023/01/25 03:09:35;;;;;;;52.38;36.75;;;2.10;99.90;;;;;;4824444;29;20118;-93
2023/01/25 03:12:10;;;;;;;51.72;36.88;;;2.10;99.90;;;;;;4797625;29;20065;-93
2023/01/25 03:14:35;;;;;;;55.30;38.05;;;2.10;99.90;;;;;;4808397;29;20070;-91
2023/01/25 03:17:07;;;;;;;54.13;37.03;;;2.10;99.90;;;;;;4800807;29;20499;-93
2023/01/25 03:19:38;;;;;;;55.67;37.50;;;2.10;99.90;;;;;;4827193;29;20050;-92
2023/01/25 03:22:08;;;;;;;51.47;36.40;;;2.10;99.90;;;;;;4828303;29;20054;-93
2023/01/25 03:24:34;;;;;;;57.45;42.30;;;2.10;99.90;;;;;;4804842;29;20051;-93
2023/01/25 03:27:17;;;;;;;55.15;39.40;;;2.10;99.90;;;;;;4796559;29;20042;-93
2023/01/25 03:29:46;;;;;;;50.65;35.55;;;2.10;99.90;;;;;;4805571;29;20110;-93
2023/01/25 03:32:18;;;;;;;51.72;38.15;;;2.10;99.90;;;;;;4825884;29;20046;-92
2023/01/25 03:34:49;;;;;;;53.78;38.45;;;2.00;99.90;;;;;;4797409;29;20046;-94
2023/01/25 03:37:15;;;;;;;51.67;36.45;;;2.00;99.90;;;;;;4799027;29;20047;-92
2023/01/25 03:39:41;;;;;;;50.10;36.42;;;2.00;99.90;;;;;;4809296;29;20111;-94
2023/01/25 03:42:07;;;;;;;55.17;37.72;;;2.00;99.90;;;;;;4809240;29;20038;-93
2023/01/25 03:44:38;;;;;;;50.03;36.72;;;2.00;99.90;;;;;;4794639;29;20051;-93
2023/01/25 03:47:07;;;;;;;52.47;37.38;;;2.00;99.90;;;;;;4799900;29;20075;-93
2023/01/25 03:49:41;;;;;;;56.22;38.58;;;2.00;99.90;;;;;;4806312;29;20051;-94
2023/01/25 03:52:17;;;;;;;;;;;;;;;;;;;;;
2023/01/25 03:55:08;;;;;;;53.08;36.67;;;2.00;99.90;;;;;;4819656;29;20053;-93
2023/01/25 03:57:33;;;;;;;54.05;37.47;;;1.90;99.90;;;;;;4804443;29;20039;-93
2023/01/25 03:59:59;;;;;;;54.30;38.78;;;2.00;99.90;;;;;;4793219;29;20093;-93
2023/01/25 04:02:25;;;;;;;52.80;38.85;;;1.90;99.90;;;;;;4796733;29;20054;-93
2023/01/25 04:05:03;;;;;;;54.92;39.00;;;2.00;99.90;;;;;;4827045;29;20065;-94
2023/01/25 04:07:35;;;;;;;56.80;38.75;;;1.90;99.90;;;;;;4825942;29;20051;-92
2023/01/25 04:10:05;;;;;;;53.75;38.17;;;1.90;99.90;;;;;;4811271;29;20057;-92
2023/01/25 04:12:33;;;;;;;55.55;37.58;;;1.90;99.90;;;;;;4815531;29;20056;-92
2023/01/25 04:15:06;;;;;;;54.40;38.55;;;2.00;99.90;;;;;;4811072;29;20046;-93
2023/01/25 04:17:40;;;;;;;56.13;38.33;;;1.90;99.90;;;;;;4795174;29;20119;-92
2023/01/25 04:20:16;;;;;;;51.80;37.88;;;2.00;99.90;;;;;;4802333;29;20082;-93
2023/01/25 04:22:47;;;;;;;52.15;37.88;;;1.90;99.90;;;;;;4808686;29;20062;-94
2023/01/25 04:25:12;;;;;;;55.35;38.72;;;1.90;99.90;;;;;;4818913;29;20057;-93
2023/01/25 04:27:38;;;;;;;50.17;36.63;;;1.90;99.90;;;;;;4799737;29;20043;-94
2023/01/25 04:30:05;;;;;;;51.42;36.72;;;1.90;99.90;;;;;;4809072;29;20046;-94
2023/01/25 04:32:54;;;;;;;53.55;37.83;;;1.90;99.90;;;;;;4792573;29;20097;-93
2023/01/25 04:35:20;;;;;;;50.17;37.08;;;1.90;99.90;;;;;;4809021;29;20137;-92
2023/01/25 04:37:56;;;;;;;50.97;36.95;;;1.90;99.90;;;;;;4808436;29;20126;-93
2023/01/25 04:43:08;;;;;;;50.63;36.50;;;1.80;99.90;;;;;;4808638;29;20396;-93
2023/01/25 04:45:42;;;;;;;55.28;37.13;;;1.80;99.90;;;;;;4826990;29;20050;-94
2023/01/25 04:48:10;;;;;;;52.13;37.03;;;1.90;99.90;;;;;;4795600;29;20043;-94
2023/01/25 04:50:41;;;;;;;50.83;36.35;;;1.80;99.90;;;;;;4814242;29;20077;-94
2023/01/25 04:53:16;;;;;;;49.50;34.38;;;1.90;99.90;;;;;;4826661;29;20070;-93
2023/01/25 04:55:59;;;;;;;50.90;36.55;;;1.90;99.90;;;;;;4826564;29;20054;-93
2023/01/25 04:58:36;;;;;;;49.63;35.60;;;1.80;99.90;;;;;;4815352;29;20054;-93
2023/01/25 05:01:02;;;;;;;46.92;34.78;;;1.80;99.90;;;;;;4803304;29;20071;-94
2023/01/25 05:03:30;;;;;;;48.35;35.47;;;1.80;99.90;;;;;;4809694;29;20042;-93
2023/01/25 05:06:05;;;;;;;48.70;34.78;;;1.80;99.90;;;;;;4809573;29;20452;-93
2023/01/25 05:08:37;;;;;;;47.45;35.60;;;1.70;99.90;;;;;;4823999;29;20050;-94
2023/01/25 05:11:06;;;;;;;45.97;33.83;;;1.80;99.90;;;;;;4817578;29;20057;-93
2023/01/25 05:13:41;;;;;;;50.42;35.58;;;1.70;99.90;;;;;;4798265;29;20404;-91
2023/01/25 05:16:06;;;;;;;47.33;34.08;;;1.80;99.90;;;;;;4792483;29;20047;-92
2023/01/25 05:18:36;;;;;;;49.95;35.60;;;1.70;99.90;;;;;;4790434;29;20095;-91
2023/01/25 05:24:07;;;;;;;46.28;32.97;;;1.70;99.90;;;;;;4825389;29;20050;-89
2023/01/25 05:29:42;;;;;;;48.53;34.28;;;1.80;99.90;;;;;;4806062;29;20115;-90
2023/01/25 05:32:29;;;;;;;48.65;34.42;;;1.80;99.90;;;;;;4789939;29;20050;-89
2023/01/25 05:35:03;;;;;;;48.58;33.50;;;1.80;99.90;;;;;;4790397;29;20061;-90
2023/01/25 05:37:28;;;;;;;43.10;32.30;;;1.70;99.90;;;;;;4816419;29;20049;-87
2023/01/25 05:39:54;;;;;;;46.60;33.10;;;1.80;99.90;;;;;;4822318;29;20054;-87
2023/01/25 05:42:20;;;;;;;43.95;31.83;;;1.80;99.90;;;;;;4814668;29;20051;-87
2023/01/25 05:44:45;;;;;;;42.40;32.45;;;1.80;99.90;;;;;;4790106;29;20050;-86
2023/01/25 05:47:17;;;;;;;44.55;32.47;;;1.80;99.90;;;;;;4797294;29;20548;-92
2023/01/25 05:49:43;;;;;;;41.60;31.85;;;1.80;99.90;;;;;;4790789;29;20058;-92
2023/01/25 05:52:20;;;;;;;42.45;32.42;;;1.70;99.90;;;;;;4790608;29;20111;-92
2023/01/25 05:54:47;;;;;;;43.22;33.03;;;1.70;99.90;;;;;;4790714;29;20050;-92
2023/01/25 05:57:16;;;;;;;47.22;33.67;;;1.70;99.90;;;;;;4807360;29;20047;-93
2023/01/25 05:59:58;;;;;;;43.53;32.28;;;1.80;99.90;;;;;;4805985;29;20142;-90
2023/01/25 06:02:26;;;;;;;42.28;31.67;;;1.70;99.90;;;;;;4794591;29;20049;-90
2023/01/25 06:04:52;;;;;;;46.35;32.67;;;1.80;99.90;;;;;;4824477;29;20133;-90
2023/01/25 06:07:21;;;;;;;46.00;32.65;;;1.70;99.90;;;;;;4807802;29;20077;-90
2023/01/25 06:09:46;;;;;;;42.25;32.17;;;1.80;99.90;;;;;;4808493;29;20122;-90
2023/01/25 06:12:18;;;;;;;47.67;33.25;;;1.70;99.90;;;;;;4824260;29;20492;-90
2023/01/25 06:14:47;;;;;;;42.63;31.73;;;1.70;99.90;;;;;;4807777;29;20141;-90
2023/01/25 06:17:19;;;;;;;42.22;31.95;;;1.80;99.90;;;;;;4807725;29;20511;-91
2023/01/25 06:19:57;;;;;;;44.42;32.83;;;1.70;99.90;;;;;;4823865;29;20069;-91
2023/01/25 06:22:37;;;;;;;43.80;31.30;;;1.70;99.90;;;;;;4823804;29;20484;-91
2023/01/25 06:25:03;;;;;;;44.30;31.70;;;1.70;99.90;;;;;;4807111;29;20141;-91
2023/01/25 06:27:36;;;;;;;41.38;31.02;;;1.70;99.90;;;;;;4823934;29;20564;-90
2023/01/25 06:30:02;;;;;;;45.42;33.10;;;1.70;99.90;;;;;;4807922;29;20066;-91
2023/01/25 06:32:31;;;;;;;43.20;31.45;;;1.70;99.90;;;;;;4804543;29;20573;-91
2023/01/25 06:34:57;;;;;;;41.42;30.95;;;1.70;99.90;;;;;;4809999;29;20043;-91
2023/01/25 06:37:22;;;;;;;44.20;32.50;;;1.70;99.90;;;;;;4809688;29;20107;-91
2023/01/25 06:39:48;;;;;;;39.92;30.70;;;1.70;99.90;;;;;;4794414;29;20046;-91
2023/01/25 06:42:23;;;;;;;44.72;32.30;;;1.60;99.90;;;;;;4809576;29;20407;-91
2023/01/25 06:44:48;;;;;;;43.95;31.73;;;1.60;99.90;;;;;;4823479;29;20070;-91
2023/01/25 06:47:17;;;;;;;43.63;31.40;;;1.60;99.90;;;;;;4809360;29;20492;-91
2023/01/25 06:49:42;;;;;;;43.30;31.50;;;1.60;99.90;;;;;;4793092;29;20103;-91
2023/01/25 06:52:11;;;;;;;39.72;30.27;;;1.60;99.90;;;;;;4792893;29;20051;-90
2023/01/25 06:54:48;;;;;;;39.95;30.83;;;1.60;99.90;;;;;;4794648;29;20133;-91
2023/01/25 06:57:14;;;;;;;43.15;31.45;;;1.60;99.90;;;;;;4823065;29;20064;-91
2023/01/25 06:59:52;;;;;;;42.97;31.85;;;1.50;99.90;;;;;;4793425;29;20054;-91
2023/01/25 07:02:21;;;;;;;45.22;31.48;;;1.60;99.90;;;;;;4821546;29;20138;-91
2023/01/25 07:04:50;;;;;;;42.13;30.45;;;1.60;99.90;;;;;;4792722;29;20051;-91
2023/01/25 07:07:15;;;;;;;44.58;31.92;;;1.60;99.90;;;;;;4792885;29;20051;-90
2023/01/25 07:09:41;;;;;;;43.63;32.47;;;1.60;99.90;;;;;;4793931;29;20058;-91
2023/01/25 07:12:23;;;;;;;45.50;32.03;;;1.50;99.90;;;;;;4792245;29;20047;-91
2023/01/25 07:14:48;;;;;;;43.60;31.63;;;1.60;99.90;;;;;;4792896;29;20054;-91
2023/01/25 07:17:19;;;;;;;43.75;32.03;;;1.50;99.90;;;;;;4792651;29;20070;-91
2023/01/25 07:19:51;;;;;;;45.00;33.25;;;1.50;99.90;;;;;;4792777;29;20062;-91
2023/01/25 07:22:17;;;;;;;44.50;32.05;;;1.60;99.90;;;;;;4794774;29;20046;-90
2023/01/25 07:24:51;;;;;;;42.40;31.58;;;1.50;99.90;;;;;;4800614;29;20146;-91
2023/01/25 07:27:19;;;;;;;43.92;32.20;;;1.50;99.90;;;;;;4826122;29;20046;-90
2023/01/25 07:29:51;;;;;;;42.95;31.50;;;1.50;99.90;;;;;;4808879;29;20045;-90
2023/01/25 07:32:22;;;;;;;46.70;32.97;;;1.50;99.90;;;;;;4809622;29;20571;-90
2023/01/25 07:34:48;;;;;;;43.97;31.90;;;1.50;99.90;;;;;;4808443;29;20038;-90
2023/01/25 07:37:17;;;;;;;44.75;31.88;;;1.50;99.90;;;;;;4810135;29;20050;-90
2023/01/25 07:39:47;;;;;;;42.70;31.20;;;1.50;99.90;;;;;;4808377;29;20090;-91
2023/01/25 07:42:33;;;;;;;44.10;31.58;;;1.50;99.90;;;;;;4822532;29;20055;-91
2023/01/25 07:45:05;;;;;;;46.10;31.83;;;1.50;99.90;;;;;;4803907;29;20507;-88
2023/01/25 07:47:38;;;;;;;42.78;30.33;;;1.50;99.90;;;;;;4834025;23;20144;-89
2023/01/25 07:50:04;;;;;;;43.42;31.75;;;1.50;99.90;;;;;;4801570;29;20051;-91
2023/01/25 07:52:30;;;;;;;43.35;31.10;;;1.50;99.90;;;;;;4808918;29;20050;-91
2023/01/25 07:54:55;;;;;;;43.45;30.98;;;1.50;99.90;;;;;;4792891;29;20442;-92
2023/01/25 07:57:32;;;;;;;47.97;33.50;;;1.40;99.90;;;;;;4808785;29;20050;-91
2023/01/25 07:59:57;;;;;;;43.88;32.08;;;1.40;99.90;;;;;;4792745;29;20055;-91
2023/01/25 08:02:32;;;;;;;45.67;32.60;;;1.40;99.90;;;;;;4826622;29;20054;-91
2023/01/25 08:04:58;;;;;;;46.83;32.78;;;1.50;99.90;;;;;;4826919;29;20462;-91
2023/01/25 08:07:33;;;;;;;47.40;32.85;;;1.40;99.90;;;;;;4826436;29;20133;-92
2023/01/25 08:09:58;;;;;;;46.58;32.60;;;1.40;99.90;;;;;;4825300;29;20137;-92
2023/01/25 08:12:49;;;;;;;44.90;31.95;;;1.50;99.90;;;;;;4810588;29;20095;-92
2023/01/25 08:15:15;;;;;;;47.97;32.95;;;1.50;99.90;;;;;;4810163;29;20050;-92
2023/01/25 08:17:41;;;;;;;48.17;33.78;;;1.40;99.90;;;;;;4809474;29;20046;-91
2023/01/25 08:20:11;;;;;;;44.75;31.95;;;1.50;99.90;;;;;;4788230;30;20064;-90
2023/01/25 08:22:39;;;;;;;49.03;34.10;;;1.40;99.90;;;;;;4787510;30;20048;-91
2023/01/25 08:25:08;;;;;;;48.05;33.40;;;1.50;99.90;;;;;;4772832;30;20528;-91
2023/01/25 08:27:34;;;;;;;44.85;32.33;;;1.40;99.90;;;;;;4787775;30;20155;-89
2023/01/25 08:30:11;;;;;;;43.13;31.08;;;1.40;99.90;;;;;;4772053;30;20540;-93
2023/01/25 08:32:38;;;;;;;45.72;32.95;;;1.40;99.90;;;;;;4771505;30;20526;-93
2023/01/25 08:35:04;;;;;;;45.95;32.67;;;1.40;99.90;;;;;;4788442;30;20060;-92
2023/01/25 08:37:30;;;;;;;47.63;33.60;;;1.40;99.90;;;;;;4788273;30;20058;-92
2023/01/25 08:40:01;;;;;;;45.83;32.60;;;1.40;99.90;;;;;;4787366;30;20059;-92
2023/01/25 08:42:44;;;;;;;50.38;34.45;;;1.50;99.90;;;;;;4786682;30;20467;-91
2023/01/25 08:45:10;;;;;;;44.20;30.67;;;1.40;99.90;;;;;;4787040;30;20413;-91
2023/01/25 08:47:35;;;;;;;44.10;31.60;;;1.40;99.90;;;;;;4787351;30;20062;-92
2023/01/25 08:50:01;;;;;;;45.30;32.10;;;1.40;99.90;;;;;;4789377;29;20062;-92
2023/01/25 08:52:39;;;;;;;47.50;33.40;;;1.40;99.90;;;;;;4825533;29;20046;-92
2023/01/25 08:55:05;;;;;;;49.95;34.13;;;1.40;99.90;;;;;;4810497;29;20046;-92
2023/01/25 08:57:34;;;;;;;48.47;33.00;;;1.40;99.90;;;;;;4808839;29;20050;-92
2023/01/25 09:00:06;;;;;;;47.88;32.85;;;1.40;99.90;;;;;;4810031;29;20046;-92
2023/01/25 09:02:35;;;;;;;51.45;34.47;;;1.40;99.90;;;;;;4810000;29;20552;-92
2023/01/25 09:05:10;;;;;;;45.90;33.13;;;1.40;99.90;;;;;;4809997;29;20494;-93
2023/01/25 09:07:39;;;;;;;46.00;31.70;;;1.30;99.90;;;;;;4809776;29;20122;-94
2023/01/25 09:10:23;;;;;;;45.47;31.58;;;1.40;99.90;;;;;;4825699;29;20061;-92
2023/01/25 09:12:52;;;;;;;49.80;33.45;;;1.40;99.90;;;;;;4809698;29;20073;-93
2023/01/25 09:15:18;;;;;;;48.28;32.40;;;1.30;99.90;;;;;;4805467;29;20438;-92
2023/01/25 09:18:15;;;;;;;48.95;33.28;;;1.30;99.90;;;;;;4790222;29;20103;-92
2023/01/25 09:20:43;;;;;;;44.42;30.33;;;1.30;99.90;;;;;;4805909;29;20142;-94
2023/01/25 09:23:47;;;;;;;44.80;30.95;;;1.30;99.90;;;;;;4791238;29;20047;-94
2023/01/25 09:26:19;;;;;;;44.08;30.00;;;1.30;99.90;;;;;;4768614;30;20089;-92
2023/01/25 09:33:13;;;;;;;49.88;31.90;;;1.30;99.90;;;;;;4734278;30;20048;-93
2023/01/25 09:52:19;;;;;;;;;;;1.20;99.90;;;;;;4824245;29;20054;-94
2023/01/25 09:55:01;;;;;;;43.67;29.17;;;1.20;99.90;;;;;;4795318;29;19925;-93
2023/01/25 09:58:00;;;;;;;46.70;31.08;;;1.20;99.90;;;;;;4779394;29;20083;-93
2023/01/25 10:01:09;;;;;;;46.40;30.33;;;1.20;99.90;;;;;;4759961;30;20154;-93
2023/01/25 10:04:28;;;;;;;48.47;31.38;;;1.20;99.90;;;;;;4775253;30;20614;-93
2023/01/25 10:07:30;;;;;;;45.08;30.63;;;1.20;99.90;;;;;;4769014;30;20555;-93
2023/01/25 10:10:04;;;;;;;45.20;30.65;;;1.30;99.90;;;;;;4739431;30;20055;-93
2023/01/25 10:15:31;;;;;;;48.55;30.95;;;1.30;99.90;;;;;;4794888;29;20472;-92
2023/01/25 10:18:37;;;;;;;;;;;;;;;;;;;;;
2023/01/25 10:25:27;;;;;;;45.35;30.17;;;1.30;99.90;;;;;;4728789;30;20052;-93
2023/01/25 10:32:12;;;;;;;45.92;28.75;;;1.20;99.90;;;;;;4739315;30;20065;-93
2023/01/25 10:35:04;;;;;;;43.88;27.98;;;1.30;99.90;;;;;;4828742;29;20042;-93
2023/01/25 10:37:38;;;;;;;46.75;30.02;;;1.30;99.90;;;;;;4756837;30;20077;-93
2023/01/25 10:43:45;;;;;;;45.88;29.00;;;1.30;99.90;;;;;;4752737;30;20055;-93
2023/01/25 10:46:24;;;;;;;50.28;30.75;;;1.40;99.90;;;;;;4785033;29;20061;-95
2023/01/25 10:49:59;;;;;;;46.30;28.83;;;1.30;99.90;;;;;;4888813;23;20065;-93
2023/01/25 11:14:28;;;;;;;48.92;31.05;;;1.40;99.90;;;;;;4196150;23;20062;-90
2023/01/25 11:17:04;;;;;;;48.63;30.90;;;1.40;99.90;;;;;;4821861;24;20510;-90
2023/01/25 11:19:47;;;;;;;;;;;;;;;;;;;;;
2023/01/25 11:23:08;;;;;;;48.50;29.95;;;1.40;99.90;;;;;;4807552;29;20084;-91
2023/01/25 11:25:34;;;;;;;50.53;31.67;;;1.40;99.90;;;;;;4819356;29;20050;-91
2023/01/25 11:28:31;;;;;;;47.60;29.23;;;1.40;99.90;;;;;;4829248;24;20046;-91
2023/01/25 11:30:56;;;;;;;48.97;30.83;;;1.40;99.90;;;;;;4827621;29;20056;-91
2023/01/25 11:33:25;;;;;;;47.53;29.42;;;1.40;99.90;;;;;;4825923;29;20042;-90
2023/01/25 11:36:31;;;;;;;51.78;30.83;;;1.50;99.90;;;;;;4810892;29;20061;-93
2023/01/25 11:39:45;;;;;;;46.47;28.17;;;1.40;99.90;;;;;;4776143;30;20133;-94
2023/01/25 11:43:02;;;;;;;49.97;28.77;;;1.40;99.90;;;;;;4802504;29;20077;-95
2023/01/25 11:45:44;;;;;;;51.58;28.73;;;1.40;99.90;;;;;;4851705;29;20057;-95
2023/01/25 11:48:30;;;;;;;47.58;29.45;;;1.40;99.90;;;;;;4827515;29;20038;-94
2023/01/25 11:51:23;;;;;;;48.80;29.65;;;1.40;99.90;;;;;;4835351;29;20427;-94
2023/01/25 11:54:18;;;;;;;;;;;;;;;;;;;;;
2023/01/25 11:57:14;;;;;;;53.20;29.60;;;1.40;99.90;;;;;;4828278;29;20089;-92
2023/01/25 11:59:47;;;;;;;49.75;28.85;;;1.40;99.90;;;;;;4822524;29;20133;-93
2023/01/25 12:02:35;;;;;;;47.30;28.20;;;1.40;99.90;;;;;;4823969;29;20078;-93
2023/01/25 12:05:09;;;;;;;51.13;29.35;;;1.50;99.90;;;;;;4829200;29;20057;-93
2023/01/25 12:08:16;;;;;;;50.55;29.73;;;1.50;99.90;;;;;;4841249;29;20084;-93
2023/01/25 12:10:50;;;;;;;48.45;28.92;;;1.50;99.90;;;;;;4826114;29;20054;-93
2023/01/25 12:13:21;;;;;;;56.15;30.85;;;1.50;99.90;;;;;;4823367;29;20042;-92
2023/01/25 12:16:01;;;;;;;55.13;29.60;;;1.50;99.90;;;;;;4840712;29;20547;-92
2023/01/25 12:19:03;;;;;;;51.08;28.98;;;1.50;99.90;;;;;;4843287;29;20798;-91
2023/01/25 12:21:42;;;;;;;53.50;30.05;;;1.50;99.90;;;;;;4828939;29;20081;-92
2023/01/25 12:24:48;;;;;;;51.75;29.25;;;1.50;99.90;;;;;;4855796;29;20037;-92
2023/01/25 12:27:43;;;;;;;62.75;34.17;;;1.50;99.90;;;;;;4745795;30;20574;-93
2023/01/25 12:30:17;;;;;;;50.55;28.90;;;1.50;99.90;;;;;;4753312;30;20146;-93
2023/01/25 12:33:11;;;;;;;58.63;32.28;;;1.50;99.90;;;;;;4797190;29;20058;-92
2023/01/25 12:35:56;;;;;;;58.28;31.35;;;1.50;99.90;;;;;;4820750;29;20095;-91
2023/01/25 12:38:45;;;;;;;58.20;30.60;;;1.50;99.90;;;;;;4825795;29;20038;-94
2023/01/25 12:41:49;;;;;;;49.72;29.48;;;1.60;99.90;;;;;;4826353;29;20061;-94
2023/01/25 12:44:56;;;;;;;56.42;30.35;;;1.50;99.90;;;;;;4789884;29;20060;-94
2023/01/25 12:48:42;;;;;;;54.53;29.75;;;1.50;99.90;;;;;;4819733;29;20526;-93
2023/01/25 12:51:14;;;;;;;51.78;28.38;;;1.50;99.90;;;;;;4736972;30;20064;-93
2023/01/25 12:53:46;;;;;;;50.30;29.35;;;1.50;99.90;;;;;;4734288;30;20106;-94
2023/01/25 12:57:12;;;;;;;61.17;31.42;;;1.50;99.90;;;;;;4717817;30;20554;-93
2023/01/25 13:04:03;;;;;;;62.80;31.70;;;1.60;99.90;;;;;;4717511;30;20059;-95
2023/01/25 13:10:45;;;;;;;50.70;28.58;;;1.50;99.90;;;;;;4675235;30;20052;-94
2023/01/25 13:14:22;;;;;;;52.50;27.33;;;1.50;99.90;;;;;;4701080;30;20103;-94
2023/01/25 13:17:36;;;;;;;;;;;;;;;;;;;;;
2023/01/25 13:20:52;;;;;;;50.73;27.10;;;1.60;99.90;;;;;;4706867;30;20054;-94
2023/01/25 13:23:47;;;;;;;49.95;26.25;;;1.50;99.90;;;;;;4754993;30;20309;-93
2023/01/25 13:30:11;;;;;;;53.75;26.67;;;1.50;99.90;;;;;;4788554;29;20453;-94
2023/01/25 13:33:15;;;;;;;;;;;;;;;;;;;;;
2023/01/25 13:36:46;;;;;;;55.05;27.52;;;1.50;99.90;;;;;;4813989;29;20147;-93
2023/01/25 13:39:36;;;;;;;49.00;26.17;;;1.60;99.90;;;;;;4796415;29;20061;-94
2023/01/25 13:42:09;;;;;;;49.83;27.05;;;1.50;99.90;;;;;;4807461;29;20069;-92
2023/01/25 13:47:37;;;;;;;49.42;26.30;;;1.50;99.90;;;;;;4804124;29;20492;-92
2023/01/25 13:50:24;;;;;;;54.25;28.48;;;1.60;99.90;;;;;;4821533;29;20054;-92
2023/01/25 13:53:00;;;;;;;48.90;26.08;;;1.60;99.90;;;;;;4811682;29;20067;-92
2023/01/25 13:58:35;;;;;;;52.38;27.52;;;1.60;99.90;;;;;;4734608;30;20059;-92
2023/01/25 14:03:51;;;;;;;54.17;28.98;;;1.50;99.90;;;;;;4876819;23;20548;-92
2023/01/25 14:06:56;;;;;;;52.40;29.58;;;1.50;99.90;;;;;;4842653;29;20062;-91
2023/01/25 14:09:43;;;;;;;;;;;;;;;;;;;;;
2023/01/25 14:12:53;;;;;;;53.75;28.40;;;1.50;99.90;;;;;;4842298;29;20050;-91
2023/01/25 14:15:30;;;;;;;53.78;28.55;;;1.50;99.90;;;;;;4838807;29;20054;-93
2023/01/25 14:18:39;;;;;;;;;;;;;;;;;;;;;
2023/01/25 14:21:27;;;;;;;52.92;28.83;;;1.50;99.90;;;;;;4775931;29;20049;-93
2023/01/25 14:24:25;;;;;;;50.47;28.65;;;1.50;99.90;;;;;;4811737;29;20504;-93
2023/01/25 14:26:54;;;;;;;55.60;28.88;;;1.60;99.90;;;;;;4810319;29;20043;-93
2023/01/25 14:29:51;;;;;;;54.58;30.30;;;1.50;99.90;;;;;;4819985;29;20038;-95
2023/01/25 14:32:54;;;;;;;57.55;30.42;;;1.50;99.90;;;;;;4796842;29;20089;-91
2023/01/25 14:35:29;;;;;;;61.17;32.17;;;1.50;99.90;;;;;;4821340;29;20050;-92
2023/01/25 14:38:18;;;;;;;53.33;29.35;;;1.40;99.90;;;;;;4807998;29;20543;-91
2023/01/25 14:41:17;;;;;;;57.95;31.40;;;1.40;99.90;;;;;;4822679;29;20061;-90
2023/01/25 14:46:39;;;;;;;58.20;30.83;;;1.40;99.90;;;;;;4781869;29;20062;-90
2023/01/25 14:49:12;;;;;;;62.65;32.20;;;1.30;99.90;;;;;;4812872;29;20081;-90
2023/01/25 14:52:23;;;;;;;55.75;31.33;;;1.30;99.90;;;;;;4856496;29;20042;-90
2023/01/25 14:56:02;;;;;;;58.60;30.05;;;1.20;99.90;;;;;;4828171;29;20081;-90
2023/01/25 14:58:31;;;;;;;58.67;30.70;;;1.20;99.90;;;;;;4785357;29;20058;-90
2023/01/25 15:01:00;;;;;;;62.15;31.27;;;1.10;99.90;;;;;;4834558;29;20062;-90
2023/01/25 15:03:27;;;;;;;57.65;30.25;;;1.10;99.90;;;;;;4849486;29;20059;-90
2023/01/25 15:06:22;;;;;;;60.33;30.52;;;1.20;99.90;;;;;;4834670;29;20052;-90